createdAt,value
2023-04-27T00:01:58.286Z,4.87
2023-04-27T00:04:25.771Z,5.27
2023-04-27T00:06:53.226Z,4.60
2023-04-27T00:09:20.890Z,5.20
2023-04-27T00:11:48.271Z,5.00
2023-04-27T00:14:15.831Z,5.20
2023-04-27T00:16:43.285Z,5.23
2023-04-27T00:19:10.611Z,4.80
2023-04-27T00:21:37.998Z,4.53
2023-04-27T00:24:05.558Z,4.90
2023-04-27T00:26:32.952Z,4.40
2023-04-27T00:29:00.508Z,4.87
2023-04-27T00:31:27.952Z,5.07
2023-04-27T00:33:55.276Z,5.03
2023-04-27T00:36:22.749Z,4.57
2023-04-27T00:38:50.082Z,5.40
2023-04-27T00:41:17.477Z,4.93
2023-04-27T00:43:45.541Z,4.73
2023-04-27T00:46:13.626Z,4.93
2023-04-27T00:48:41.616Z,4.63
2023-04-27T00:51:09.131Z,4.97
2023-04-27T00:53:37.320Z,4.70
2023-04-27T00:56:07.706Z,4.90
2023-04-27T00:58:35.644Z,5.23
2023-04-27T01:01:03.719Z,5.53
2023-04-27T01:03:31.334Z,5.73
2023-04-27T01:06:00.570Z,5.30
2023-04-27T01:08:28.918Z,5.40
2023-04-27T01:10:56.300Z,5.33
2023-04-27T01:13:23.677Z,5.40
2023-04-27T01:15:51.145Z,5.73
2023-04-27T01:18:19.092Z,4.77
2023-04-27T01:20:46.494Z,5.23
2023-04-27T01:23:16.759Z,5.13
2023-04-27T01:25:43.661Z,5.37
2023-04-27T01:28:11.107Z,5.40
2023-04-27T01:30:38.534Z,5.90
2023-04-27T01:33:05.959Z,5.60
2023-04-27T01:35:33.387Z,6.30
2023-04-27T01:38:01.146Z,5.27
2023-04-27T01:40:28.540Z,5.00
2023-04-27T01:42:55.980Z,4.80
2023-04-27T01:45:23.429Z,5.43
2023-04-27T01:47:54.055Z,5.43
2023-04-27T01:50:21.593Z,5.00
2023-04-27T01:52:48.933Z,5.60
2023-04-27T01:55:16.339Z,5.20
2023-04-27T01:57:43.698Z,5.47
2023-04-27T02:00:11.433Z,5.97
2023-04-27T02:02:38.915Z,5.13
2023-04-27T02:05:06.480Z,5.83
2023-04-27T02:07:33.862Z,5.70
2023-04-27T02:10:01.264Z,5.37
2023-04-27T02:12:28.677Z,5.80
2023-04-27T02:14:56.121Z,6.07
2023-04-27T02:17:23.959Z,5.73
2023-04-27T02:19:51.430Z,5.50
2023-04-27T02:22:18.804Z,5.63
2023-04-27T02:24:46.275Z,5.73
2023-04-27T02:27:13.643Z,5.30
2023-04-27T02:29:41.449Z,5.20
2023-04-27T02:32:09.389Z,4.97
2023-04-27T02:34:36.788Z,6.47
2023-04-27T02:37:04.179Z,5.90
2023-04-27T02:39:31.551Z,6.67
2023-04-27T02:41:58.926Z,5.77
2023-04-27T02:44:26.801Z,5.20
2023-04-27T02:46:54.217Z,4.70
2023-04-27T02:49:21.569Z,5.50
2023-04-27T02:51:48.956Z,6.00
2023-04-27T02:54:16.339Z,6.50
2023-04-27T02:56:43.903Z,6.07
2023-04-27T02:59:11.344Z,5.47
2023-04-27T03:01:39.145Z,5.63
2023-04-27T03:04:06.702Z,6.13
2023-04-27T03:06:34.273Z,5.63
2023-04-27T03:09:01.664Z,5.87
2023-04-27T03:11:29.036Z,5.70
2023-04-27T03:13:56.428Z,5.77
2023-04-27T03:16:23.843Z,6.00
2023-04-27T03:18:51.225Z,5.90
2023-04-27T03:21:18.592Z,6.20
2023-04-27T03:23:45.997Z,5.93
2023-04-27T03:26:14.065Z,5.10
2023-04-27T03:28:42.110Z,6.37
2023-04-27T03:31:10.986Z,5.93
2023-04-27T03:33:38.559Z,8.40
2023-04-27T03:36:06.861Z,6.33
2023-04-27T03:38:34.626Z,5.87
2023-04-27T03:41:02.085Z,6.40
2023-04-27T03:43:29.523Z,6.10
2023-04-27T03:45:57.324Z,5.90
2023-04-27T03:48:24.664Z,6.20
2023-04-27T03:50:52.125Z,6.13
2023-04-27T03:53:19.490Z,5.67
2023-04-27T03:55:47.536Z,6.13
2023-04-27T03:58:16.620Z,6.13
2023-04-27T04:00:44.084Z,6.23
2023-04-27T04:03:11.586Z,6.07
2023-04-27T04:05:39.160Z,5.73
2023-04-27T04:08:06.597Z,6.67
2023-04-27T04:10:33.982Z,5.97
2023-04-27T04:13:01.356Z,6.67
2023-04-27T04:15:28.735Z,6.83
2023-04-27T04:17:56.235Z,6.17
2023-04-27T04:20:23.597Z,6.10
2023-04-27T04:22:51.131Z,5.70
2023-04-27T04:25:18.671Z,6.47
2023-04-27T04:27:46.063Z,6.00
2023-04-27T04:30:13.632Z,5.90
2023-04-27T04:32:41.422Z,6.40
2023-04-27T04:35:08.838Z,5.60
2023-04-27T04:37:36.286Z,5.60
2023-04-27T04:40:10.434Z,5.93
2023-04-27T04:42:38.279Z,5.90
2023-04-27T04:45:07.011Z,5.10
2023-04-27T04:47:35.135Z,5.90
2023-04-27T04:50:02.740Z,6.17
2023-04-27T04:52:30.120Z,5.87
2023-04-27T04:54:57.518Z,5.23
2023-04-27T04:57:24.905Z,5.60
2023-04-27T04:59:52.311Z,5.93
2023-04-27T05:02:19.732Z,5.63
2023-04-27T05:04:47.171Z,6.47
2023-04-27T05:07:15.528Z,5.83
2023-04-27T05:09:43.823Z,5.57
2023-04-27T05:12:11.204Z,5.57
2023-04-27T05:14:38.586Z,4.97
2023-04-27T05:17:06.002Z,5.80
2023-04-27T05:19:33.477Z,5.43
2023-04-27T05:22:01.072Z,4.97
2023-04-27T05:24:28.449Z,4.90
2023-04-27T05:26:55.898Z,5.43
2023-04-27T05:29:23.467Z,5.20
2023-04-27T05:31:50.871Z,5.13
2023-04-27T05:34:18.254Z,5.17
2023-04-27T05:36:47.024Z,5.23
2023-04-27T05:39:14.660Z,5.70
2023-04-27T05:41:42.267Z,5.87
2023-04-27T05:44:09.655Z,6.00
2023-04-27T05:46:38.763Z,6.03
2023-04-27T05:49:06.185Z,5.60
2023-04-27T05:51:33.845Z,5.33
2023-04-27T05:54:01.837Z,5.10
2023-04-27T05:56:29.203Z,5.93
2023-04-27T05:58:56.564Z,5.53
2023-04-27T06:01:24.138Z,5.63
2023-04-27T06:03:51.614Z,5.77
2023-04-27T06:06:19.007Z,4.67
2023-04-27T06:08:46.383Z,5.30
2023-04-27T06:11:13.772Z,6.77
2023-04-27T06:13:41.220Z,5.77
2023-04-27T06:16:08.641Z,5.20
2023-04-27T06:18:36.177Z,5.10
2023-04-27T06:21:03.567Z,5.33
2023-04-27T06:23:30.935Z,5.27
2023-04-27T06:25:59.201Z,4.43
2023-04-27T06:28:26.668Z,4.60
2023-04-27T06:30:54.578Z,3.80
2023-04-27T06:33:21.972Z,4.37
2023-04-27T06:35:49.346Z,4.20
2023-04-27T06:38:16.719Z,3.70
2023-04-27T06:40:44.840Z,4.17
2023-04-27T06:43:12.207Z,3.13
2023-04-27T06:45:39.857Z,4.40
2023-04-27T06:48:07.325Z,3.53
2023-04-27T06:50:34.837Z,3.30
2023-04-27T06:53:02.213Z,3.90
2023-04-27T06:55:29.598Z,4.10
2023-04-27T06:57:57.305Z,4.30
2023-04-27T07:00:24.746Z,3.67
2023-04-27T07:02:52.186Z,4.10
2023-04-27T07:05:19.746Z,3.50
2023-04-27T07:07:47.113Z,3.67
2023-04-27T07:10:14.578Z,3.80
2023-04-27T07:12:42.748Z,3.40
2023-04-27T07:15:10.351Z,4.07
2023-04-27T07:17:37.789Z,4.20
2023-04-27T07:20:06.177Z,4.37
2023-04-27T07:22:34.141Z,4.33
2023-04-27T07:25:01.500Z,4.13
2023-04-27T07:27:28.921Z,4.27
2023-04-27T07:29:56.449Z,4.30
2023-04-27T07:32:23.885Z,4.37
2023-04-27T07:34:54.109Z,3.80
2023-04-27T07:37:21.188Z,3.50
2023-04-27T07:39:49.943Z,4.20
2023-04-27T07:42:17.323Z,3.80
2023-04-27T07:44:44.776Z,4.20
2023-04-27T07:47:13.351Z,3.50
2023-04-27T07:49:40.729Z,3.20
2023-04-27T07:52:08.193Z,4.03
2023-04-27T07:54:35.579Z,3.83
2023-04-27T07:57:04.528Z,4.07
2023-04-27T07:59:31.876Z,4.03
2023-04-27T08:02:14.944Z,3.93
2023-04-27T08:04:28.648Z,4.03
2023-04-27T08:06:56.648Z,3.47
2023-04-27T08:09:24.295Z,3.60
2023-04-27T08:11:51.719Z,4.43
2023-04-27T08:14:19.095Z,6.80
2023-04-27T08:16:46.892Z,5.10
2023-04-27T08:19:14.366Z,4.13
2023-04-27T08:21:41.915Z,4.90
2023-04-27T08:24:09.316Z,3.90
2023-04-27T08:26:36.679Z,3.90
2023-04-27T08:29:12.003Z,3.87
2023-04-27T08:31:33.591Z,4.30
2023-04-27T08:34:00.927Z,6.60
2023-04-27T08:36:28.505Z,5.77
2023-04-27T08:38:55.912Z,4.03
2023-04-27T08:41:23.672Z,3.60
2023-04-27T08:43:53.096Z,3.40
2023-04-27T08:46:21.152Z,3.67
2023-04-27T08:48:50.039Z,4.03
2023-04-27T08:51:17.701Z,3.60
2023-04-27T08:53:52.448Z,3.40
2023-04-27T08:56:20.603Z,3.70
2023-04-27T08:58:47.957Z,4.27
2023-04-27T09:01:15.921Z,3.40
2023-04-27T09:03:45.673Z,3.60
2023-04-27T09:06:13.794Z,4.10
2023-04-27T09:08:47.878Z,3.40
2023-04-27T09:11:16.036Z,3.37
2023-04-27T09:13:45.257Z,3.17
2023-04-27T09:16:14.120Z,3.70
2023-04-27T09:18:42.341Z,3.80
2023-04-27T09:21:10.199Z,3.93
2023-04-27T09:23:38.352Z,3.80
2023-04-27T09:26:08.057Z,3.77
2023-04-27T09:28:37.043Z,3.80
2023-04-27T09:31:04.881Z,3.50
2023-04-27T09:33:32.926Z,4.00
2023-04-27T09:36:01.094Z,4.00
2023-04-27T09:38:28.470Z,4.47
2023-04-27T09:40:56.447Z,5.20
2023-04-27T09:43:24.768Z,3.90
2023-04-27T09:45:52.209Z,4.77
2023-04-27T09:48:19.617Z,4.43
2023-04-27T09:50:47.895Z,3.77
2023-04-27T09:53:16.806Z,4.40
2023-04-27T09:55:45.738Z,4.43
2023-04-27T09:58:32.890Z,4.67
2023-04-27T10:01:07.687Z,4.13
2023-04-27T10:03:36.865Z,4.23
2023-04-27T10:06:08.796Z,3.90
2023-04-27T10:08:36.175Z,3.83
2023-04-27T10:11:05.094Z,3.70
2023-04-27T10:13:32.534Z,4.40
2023-04-27T10:16:01.478Z,4.80
2023-04-27T10:18:31.836Z,4.60
2023-04-27T10:21:00.750Z,4.00
2023-04-27T10:23:28.796Z,4.43
2023-04-27T10:25:57.036Z,4.60
2023-04-27T10:28:24.479Z,4.23
2023-04-27T10:30:52.013Z,4.53
2023-04-27T10:33:20.496Z,3.60
2023-04-27T10:35:57.753Z,4.43
2023-04-27T10:38:26.648Z,4.40
2023-04-27T10:40:57.422Z,4.70
2023-04-27T10:43:26.937Z,4.50
2023-04-27T10:45:54.457Z,3.97
2023-04-27T10:48:22.274Z,3.57
2023-04-27T10:50:51.579Z,4.33
2023-04-27T10:53:18.982Z,4.40
2023-04-27T10:55:46.731Z,4.20
2023-04-27T10:58:14.114Z,3.63
2023-04-27T11:00:44.393Z,4.13
2023-04-27T11:03:17.239Z,4.33
2023-04-27T11:05:45.535Z,4.20
2023-04-27T11:08:14.098Z,3.97
2023-04-27T11:10:51.459Z,3.70
2023-04-27T11:13:20.205Z,3.70
2023-04-27T11:15:49.096Z,4.20
2023-04-27T11:18:17.729Z,3.80
2023-04-27T11:20:45.962Z,3.83
2023-04-27T11:23:16.528Z,3.70
2023-04-27T11:25:43.889Z,4.30
2023-04-27T11:28:18.316Z,3.87
2023-04-27T11:30:45.671Z,3.77
2023-04-27T11:33:13.135Z,3.67
2023-04-27T11:35:40.430Z,4.17
2023-04-27T11:38:07.743Z,3.40
2023-04-27T11:40:36.778Z,3.70
2023-04-27T11:43:04.172Z,3.83
2023-04-27T11:45:31.916Z,3.27
2023-04-27T11:47:59.615Z,3.43
2023-04-27T11:50:27.806Z,4.20
2023-04-27T11:52:55.882Z,3.20
2023-04-27T11:55:24.359Z,3.80
2023-04-27T11:57:53.292Z,3.73
2023-04-27T12:00:21.117Z,4.10
2023-04-27T12:02:48.598Z,3.80
2023-04-27T12:05:16.963Z,3.47
2023-04-27T12:07:44.541Z,4.17
2023-04-27T12:10:11.984Z,4.10
2023-04-27T12:12:39.372Z,4.00
2023-04-27T12:15:08.228Z,3.93
2023-04-27T12:17:35.744Z,3.97
2023-04-27T12:20:03.330Z,4.47
2023-04-27T12:22:30.708Z,4.50
2023-04-27T12:24:58.116Z,3.93
2023-04-27T12:27:26.282Z,3.87
2023-04-27T12:29:58.052Z,4.80
2023-04-27T12:32:25.584Z,4.23
2023-04-27T12:34:52.944Z,4.30
2023-04-27T12:37:21.509Z,4.10
2023-04-27T12:39:48.873Z,4.40
2023-04-27T12:42:17.889Z,4.33
2023-04-27T12:44:45.669Z,4.33
2023-04-27T12:47:20.088Z,4.63
2023-04-27T12:49:43.051Z,4.07
2023-04-27T12:52:11.170Z,3.83
2023-04-27T12:54:38.935Z,4.43
2023-04-27T12:57:06.672Z,4.00
2023-04-27T12:59:34.184Z,3.53
2023-04-27T13:02:02.237Z,4.20
2023-04-27T13:04:32.701Z,4.33
2023-04-27T13:07:01.056Z,4.60
2023-04-27T13:09:29.001Z,4.67
2023-04-27T13:11:58.254Z,5.20
2023-04-27T13:14:28.358Z,4.90
2023-04-27T13:16:55.810Z,4.33
2023-04-27T13:19:23.272Z,4.80
2023-04-27T13:21:50.644Z,4.43
2023-04-27T13:24:18.406Z,4.13
2023-04-27T13:26:46.230Z,4.47
2023-04-27T13:29:13.624Z,4.60
2023-04-27T13:31:41.225Z,4.37
2023-04-27T13:34:08.551Z,4.13
2023-04-27T13:36:36.296Z,4.83
2023-04-27T13:39:04.732Z,4.33
2023-04-27T13:41:32.136Z,4.60
2023-04-27T13:43:59.525Z,4.50
2023-04-27T13:46:27.091Z,4.43
2023-04-27T13:48:54.537Z,4.17
2023-04-27T13:51:21.987Z,4.90
2023-04-27T13:53:49.371Z,5.12
2023-04-27T13:56:16.764Z,7.87
2023-04-27T13:58:44.122Z,10.70
2023-04-27T14:01:11.666Z,5.07
2023-04-27T14:06:07.476Z,4.50
2023-04-27T14:08:34.831Z,4.70
2023-04-27T14:11:02.266Z,4.30
2023-04-27T14:13:29.624Z,4.57
2023-04-27T14:15:57.028Z,4.27
2023-04-27T14:18:31.964Z,4.87
2023-04-27T14:20:55.240Z,4.10
2023-04-27T14:23:22.619Z,4.30
2023-04-27T14:25:50.080Z,4.00
2023-04-27T14:28:17.439Z,4.87
2023-04-27T14:30:44.837Z,4.00
2023-04-27T14:33:12.303Z,4.20
2023-04-27T14:35:39.820Z,4.03
2023-04-27T14:38:08.276Z,4.90
2023-04-27T14:40:35.612Z,4.37
2023-04-27T14:43:02.953Z,3.93
2023-04-27T14:45:39.781Z,4.00
2023-04-27T14:47:59.284Z,4.20
2023-04-27T14:50:28.010Z,5.20
2023-04-27T14:52:57.025Z,4.37
2023-04-27T14:55:24.562Z,4.80
2023-04-27T14:57:51.946Z,4.87
2023-04-27T15:00:19.392Z,4.63
2023-04-27T15:02:46.842Z,4.53
2023-04-27T15:05:14.259Z,4.40
2023-04-27T15:07:41.701Z,4.97
2023-04-27T15:10:09.540Z,4.60
2023-04-27T15:12:36.927Z,4.67
2023-04-27T15:15:04.659Z,4.40
2023-04-27T15:17:32.054Z,4.30
2023-04-27T15:19:59.531Z,4.20
2023-04-27T15:22:28.284Z,3.33
2023-04-27T15:24:55.654Z,4.30
2023-04-27T15:27:23.033Z,4.70
2023-04-27T15:29:50.416Z,4.53
2023-04-27T15:32:17.783Z,4.27
2023-04-27T15:34:45.780Z,3.60
2023-04-27T15:37:13.436Z,3.80
2023-04-27T15:39:41.798Z,4.37
2023-04-27T15:42:09.162Z,4.07
2023-04-27T15:44:37.148Z,4.40
2023-04-27T15:47:04.770Z,4.50
2023-04-27T15:49:34.454Z,3.80
2023-04-27T15:52:01.339Z,3.97
2023-04-27T15:54:28.734Z,4.40
2023-04-27T15:56:56.159Z,3.70
2023-04-27T15:59:23.508Z,4.37
2023-04-27T16:01:51.273Z,4.13
2023-04-27T16:04:18.762Z,3.67
2023-04-27T16:06:46.438Z,3.33
2023-04-27T16:09:13.918Z,3.90
2023-04-27T16:11:42.545Z,3.73
2023-04-27T16:14:09.912Z,3.97
2023-04-27T16:16:38.511Z,3.80
2023-04-27T16:19:07.208Z,3.23
2023-04-27T16:21:34.614Z,3.87
2023-04-27T16:24:02.003Z,3.53
2023-04-27T16:26:29.380Z,3.40
2023-04-27T16:28:56.840Z,3.10
2023-04-27T16:31:24.245Z,4.40
2023-04-27T16:33:51.600Z,3.93
2023-04-27T16:36:18.974Z,3.73
2023-04-27T16:38:46.452Z,4.00
2023-04-27T16:41:13.827Z,4.73
2023-04-27T16:43:41.252Z,3.63
2023-04-27T16:46:09.953Z,3.40
2023-04-27T16:48:37.351Z,3.23
2023-04-27T16:51:05.056Z,3.80
2023-04-27T16:53:32.499Z,3.40
2023-04-27T16:56:01.334Z,3.80
2023-04-27T16:58:29.446Z,3.70
2023-04-27T17:00:57.792Z,3.77
2023-04-27T17:03:25.960Z,3.60
2023-04-27T17:05:53.394Z,3.30
2023-04-27T17:08:20.756Z,3.57
2023-04-27T17:10:48.132Z,3.10
2023-04-27T17:13:16.218Z,3.43
2023-04-27T17:15:43.649Z,3.47
2023-04-27T17:18:11.014Z,3.50
2023-04-27T17:20:40.329Z,4.13
2023-04-27T17:23:07.685Z,3.43
2023-04-27T17:25:35.080Z,3.90
2023-04-27T17:28:02.505Z,3.00
2023-04-27T17:30:29.855Z,3.90
2023-04-27T17:32:57.637Z,3.60
2023-04-27T17:35:25.050Z,4.00
2023-04-27T17:37:52.650Z,4.13
2023-04-27T17:40:20.861Z,3.73
2023-04-27T17:42:48.436Z,4.20
2023-04-27T17:45:16.422Z,4.20
2023-04-27T17:47:43.807Z,3.70
2023-04-27T17:50:11.371Z,3.83
2023-04-27T17:52:39.501Z,3.10
2023-04-27T17:55:07.059Z,3.70
2023-04-27T17:57:34.422Z,3.50
2023-04-27T18:00:01.804Z,3.37
2023-04-27T18:02:29.306Z,3.73
2023-04-27T18:04:56.849Z,3.40
2023-04-27T18:07:25.204Z,2.70
2023-04-27T18:09:52.637Z,3.27
2023-04-27T18:12:20.023Z,3.43
2023-04-27T18:14:47.345Z,3.13
2023-04-27T18:17:14.774Z,3.00
2023-04-27T18:19:42.402Z,3.07
2023-04-27T18:22:10.251Z,3.57
2023-04-27T18:24:37.561Z,3.60
2023-04-27T18:27:05.325Z,3.90
2023-04-27T18:29:32.924Z,3.60
2023-04-27T18:32:01.509Z,3.70
2023-04-27T18:34:28.911Z,3.10
2023-04-27T18:36:56.381Z,3.00
2023-04-27T18:39:23.826Z,3.50
2023-04-27T18:41:51.152Z,3.93
2023-04-27T18:44:18.548Z,3.10
2023-04-27T18:46:45.998Z,3.40
2023-04-27T18:49:13.590Z,3.90
2023-04-27T18:51:41.279Z,3.57
2023-04-27T18:54:08.766Z,3.60
2023-04-27T18:56:36.215Z,4.83
2023-04-27T18:59:03.594Z,4.10
2023-04-27T19:01:31.128Z,4.40
2023-04-27T19:03:59.043Z,4.13
2023-04-27T19:06:27.373Z,4.40
2023-04-27T19:08:55.622Z,3.60
2023-04-27T19:11:24.781Z,4.43
2023-04-27T19:13:52.172Z,3.80
2023-04-27T19:16:19.577Z,3.70
2023-04-27T19:18:47.054Z,4.10
2023-04-27T19:21:14.393Z,4.30
2023-04-27T19:23:41.876Z,4.13
2023-04-27T19:26:13.145Z,3.67
2023-04-27T19:28:38.231Z,4.67
2023-04-27T19:31:06.806Z,4.27
2023-04-27T19:33:34.260Z,4.10
2023-04-27T19:36:01.606Z,3.83
2023-04-27T19:38:29.254Z,4.63
2023-04-27T19:40:56.700Z,3.93
2023-04-27T19:43:24.096Z,3.70
2023-04-27T19:45:51.936Z,5.03
2023-04-27T19:48:19.278Z,4.53
2023-04-27T19:50:46.647Z,4.07
2023-04-27T19:53:14.014Z,4.10
2023-04-27T19:55:42.156Z,4.13
2023-04-27T19:58:09.557Z,3.90
2023-04-27T20:00:36.926Z,4.60
2023-04-27T20:03:06.166Z,4.23
2023-04-27T20:05:35.106Z,3.80
2023-04-27T20:08:02.688Z,4.57
2023-04-27T20:10:30.008Z,4.30
2023-04-27T20:12:57.570Z,3.80
2023-04-27T20:15:25.485Z,3.90
2023-04-27T20:17:53.243Z,4.40
2023-04-27T20:20:20.823Z,4.20
2023-04-27T20:22:48.256Z,4.47
2023-04-27T20:25:15.625Z,4.13
2023-04-27T20:27:43.007Z,3.83
2023-04-27T20:30:10.711Z,4.50
2023-04-27T20:32:39.983Z,4.27
2023-04-27T20:35:09.138Z,3.97
2023-04-27T20:37:36.463Z,3.67
2023-04-27T20:40:07.979Z,4.00
2023-04-27T20:42:35.917Z,3.90
2023-04-27T20:45:04.982Z,4.17
2023-04-27T20:47:32.401Z,3.97
2023-04-27T20:49:59.754Z,3.97
2023-04-27T20:52:30.583Z,4.23
2023-04-27T20:54:56.373Z,4.57
2023-04-27T20:57:23.767Z,3.97
2023-04-27T20:59:51.175Z,4.37
2023-04-27T21:02:18.599Z,4.50
2023-04-27T21:04:46.337Z,4.40
2023-04-27T21:07:13.654Z,4.03
2023-04-27T21:09:41.535Z,4.20
2023-04-27T21:12:08.967Z,4.00
2023-04-27T21:14:36.361Z,4.57
2023-04-27T21:17:03.899Z,3.87
2023-04-27T21:19:31.345Z,4.53
2023-04-27T21:21:58.715Z,4.00
2023-04-27T21:24:26.108Z,3.60
2023-04-27T21:26:53.471Z,3.87
2023-04-27T21:29:20.856Z,4.30
2023-04-27T21:31:48.673Z,4.23
2023-04-27T21:34:16.205Z,3.47
2023-04-27T21:36:43.815Z,3.90
2023-04-27T21:39:11.867Z,4.13
2023-04-27T21:41:40.709Z,3.90
2023-04-27T21:44:09.974Z,3.70
2023-04-27T21:46:37.701Z,4.23
2023-04-27T21:49:05.287Z,4.20
2023-04-27T21:51:34.342Z,3.93
2023-04-27T21:54:01.884Z,5.33
2023-04-27T21:56:29.353Z,5.07
2023-04-27T21:58:56.728Z,4.83
2023-04-27T22:01:25.795Z,4.80
2023-04-27T22:03:53.614Z,4.60
2023-04-27T22:06:21.735Z,5.00
2023-04-27T22:08:49.158Z,4.47
2023-04-27T22:11:16.559Z,4.37
2023-04-27T22:13:43.944Z,4.33
2023-04-27T22:16:13.681Z,4.70
2023-04-27T22:18:40.311Z,5.23
2023-04-27T22:21:08.042Z,4.83
2023-04-27T22:23:35.373Z,4.70
2023-04-27T22:26:02.768Z,4.60
2023-04-27T22:28:30.690Z,4.33
2023-04-27T22:30:58.078Z,4.30
2023-04-27T22:33:25.465Z,4.53
2023-04-27T22:35:52.912Z,4.77
2023-04-27T22:38:20.764Z,4.37
2023-04-27T22:40:48.131Z,5.10
2023-04-27T22:43:15.534Z,4.80
2023-04-27T22:45:42.912Z,4.60
2023-04-27T22:48:10.350Z,4.67
2023-04-27T22:50:37.763Z,4.47
2023-04-27T22:53:05.220Z,4.50
2023-04-27T22:55:32.515Z,4.30
2023-04-27T22:57:59.944Z,5.80
2023-04-27T23:00:27.382Z,5.13
2023-04-27T23:02:54.917Z,4.53
2023-04-27T23:05:22.716Z,4.50
2023-04-27T23:07:50.873Z,4.33
2023-04-27T23:10:18.892Z,4.37
2023-04-27T23:12:46.428Z,4.80
2023-04-27T23:15:15.042Z,4.37
2023-04-27T23:17:43.324Z,4.13
2023-04-27T23:20:26.776Z,3.90
2023-04-27T23:22:41.813Z,4.03
2023-04-27T23:25:09.244Z,4.60
2023-04-27T23:27:36.835Z,4.00
2023-04-27T23:30:04.353Z,4.13
2023-04-27T23:32:31.875Z,4.10
2023-04-27T23:34:59.234Z,3.93
2023-04-27T23:37:26.623Z,4.13
2023-04-27T23:39:53.987Z,4.13
2023-04-27T23:42:21.384Z,3.87
2023-04-27T23:44:48.761Z,4.37
2023-04-27T23:47:16.156Z,3.97
2023-04-27T23:49:44.249Z,3.53
2023-04-27T23:52:14.665Z,3.67
2023-04-27T23:54:41.975Z,3.60
2023-04-27T23:57:09.359Z,2.90
2023-04-27T23:59:37.183Z,3.67
